Time;durP1;ratioP1;P1;durP2;ratioP2;P2;SDS_P1;SDS_P2;PMS_P1;PMS_P2;Temp;Humidity;BMP_temperature;BMP_pressure;BME280_temperature;BME280_humidity;BME280_pressure;Samples;Min_cycle;Max_cycle;Signal;HPM_P1;HPM_P2
2022/05/14 00:01:28;;;;;;;8.93;3.53;;;;;;;10.75;89.75;102023.53;5098987;28;20035;-63
2022/05/14 00:03:54;;;;;;;10.20;3.70;;;;;;;10.76;89.80;102027.88;5089572;28;20012;-63
2022/05/14 00:06:21;;;;;;;7.88;3.90;;;;;;;10.74;88.58;102028.63;5099987;28;20093;-64
2022/05/14 00:08:47;;;;;;;10.52;3.67;;;;;;;10.75;88.29;102033.91;5102565;28;20057;-64
2022/05/14 00:13:58;;;;;;;8.18;3.45;;;;;;;10.76;87.57;102030.47;5097976;28;20077;-63
2022/05/14 00:16:25;;;;;;;8.68;4.00;;;;;;;10.76;87.27;102027.88;5100525;28;20471;-64
2022/05/14 00:18:54;;;;;;;6.85;3.30;;;;;;;10.72;87.58;102020.75;5099537;28;20439;-64
2022/05/14 00:21:21;;;;;;;7.30;3.40;;;;;;;10.69;87.70;102030.97;5099454;28;20027;-64
2022/05/14 00:23:46;;;;;;;11.82;3.75;;;;;;;10.64;87.49;102029.84;5100640;28;20046;-64
2022/05/14 00:26:12;;;;;;;9.65;3.53;;;;;;;10.62;88.13;102036.66;5099098;28;20031;-64
2022/05/14 00:28:38;;;;;;;10.20;3.83;;;;;;;10.57;86.81;102024.38;5094837;28;20030;-64
2022/05/14 00:31:04;;;;;;;10.25;3.25;;;;;;;10.54;87.47;102031.09;5100237;28;20451;-64
2022/05/14 00:33:29;;;;;;;10.05;3.88;;;;;;;10.49;87.81;102017.91;5107066;27;20027;-64
2022/05/14 00:35:55;;;;;;;9.38;3.88;;;;;;;10.47;87.90;102018.59;5103423;27;20052;-64
2022/05/14 00:38:20;;;;;;;11.98;4.03;;;;;;;10.42;88.23;102011.47;5105492;28;20023;-64
2022/05/14 00:40:54;;;;;;;9.55;3.47;;;;;;;10.40;88.21;102014.78;5105165;27;20598;-64
2022/05/14 00:43:20;;;;;;;7.57;3.90;;;;;;;10.40;88.70;102010.50;5106832;27;20023;-64
2022/05/14 00:45:54;;;;;;;8.27;3.83;;;;;;;10.39;88.65;102015.63;5106571;27;20020;-63
2022/05/14 00:48:20;;;;;;;10.82;4.00;;;;;;;10.38;89.13;102019.03;5105759;27;20077;-63
2022/05/14 00:50:56;;;;;;;10.18;4.20;;;;;;;10.35;89.35;102014.56;5103719;28;20023;-64
2022/05/14 00:53:30;;;;;;;8.18;4.03;;;;;;;10.35;89.66;102018.84;5102581;27;20031;-64
2022/05/14 00:55:58;;;;;;;10.85;4.70;;;;;;;10.36;88.05;102012.88;5109493;28;20024;-63
2022/05/14 00:58:34;;;;;;;9.77;4.45;;;;;;;10.39;88.53;102019.09;5104255;28;20035;-63
2022/05/14 01:00:59;;;;;;;9.48;4.85;;;;;;;10.37;88.98;102015.53;5104750;28;20039;-63
2022/05/14 01:03:25;;;;;;;8.25;3.65;;;;;;;10.35;89.26;102011.06;5108724;28;20035;-64
2022/05/14 01:05:52;;;;;;;8.07;3.85;;;;;;;10.32;88.88;102011.81;5109492;28;20459;-64
2022/05/14 01:08:18;;;;;;;9.90;4.18;;;;;;;10.31;89.14;102018.69;5099822;27;20035;-64
2022/05/14 01:10:46;;;;;;;8.73;3.38;;;;;;;10.27;88.96;102008.97;5103140;28;20290;-63
2022/05/14 01:13:12;;;;;;;6.57;4.10;;;;;;;10.26;89.47;102014.06;5103149;28;20023;-64
2022/05/14 01:15:56;;;;;;;9.27;4.70;;;;;;;10.23;88.99;102011.34;5104877;27;20031;-63
2022/05/14 01:18:24;;;;;;;8.68;4.13;;;;;;;10.17;89.30;102011.91;5108207;28;20064;-63
2022/05/14 01:21:10;;;;;;;8.35;3.65;;;;;;;10.16;88.79;102015.31;5104586;27;20032;-64
2022/05/14 01:26:59;;;;;;;8.38;3.38;;;;;;;10.12;89.28;102010.78;5103601;28;20050;-64
2022/05/14 01:29:25;;;;;;;11.25;3.95;;;;;;;10.11;89.01;102009.00;5102292;28;20039;-64
2022/05/14 01:31:53;;;;;;;8.27;3.78;;;;;;;10.09;89.23;102006.34;5103875;28;20028;-64
2022/05/14 01:34:25;;;;;;;8.35;3.25;;;;;;;10.06;88.32;102007.06;5107388;27;20510;-64
2022/05/14 01:36:51;;;;;;;5.90;3.30;;;;;;;10.05;88.50;102010.47;5107239;28;20023;-63
2022/05/14 01:39:16;;;;;;;6.85;3.42;;;;;;;10.04;88.52;102011.25;5100083;27;20494;-64
2022/05/14 01:41:42;;;;;;;7.65;3.00;;;;;;;10.06;87.63;102012.22;5107148;28;20173;-64
2022/05/14 01:44:08;;;;;;;5.75;3.50;;;;;;;10.07;87.93;102014.00;5095185;27;20047;-64
2022/05/14 01:46:33;;;;;;;6.00;3.58;;;;;;;10.06;88.22;102014.81;5100471;28;20031;-63
2022/05/14 01:48:59;;;;;;;4.95;3.22;;;;;;;10.08;88.62;102017.50;5102006;28;20036;-62
2022/05/14 01:51:25;;;;;;;8.73;3.15;;;;;;;10.07;87.60;102019.19;5100598;28;20069;-64
2022/05/14 01:53:51;;;;;;;6.30;2.78;;;;;;;10.09;87.41;102024.47;5099957;28;20038;-64
2022/05/14 01:56:17;;;;;;;9.15;3.28;;;;;;;10.09;87.00;102016.69;5098233;28;20028;-63
2022/05/14 01:58:42;;;;;;;6.13;2.97;;;;;;;10.11;85.99;102027.13;5099767;28;20028;-64
2022/05/14 02:01:23;;;;;;;5.75;2.45;;;;;;;10.13;85.92;102021.22;5099061;28;20013;-64
2022/05/14 02:03:56;;;;;;;;;;;;;;;10.12;84.90;102023.72;5097599;28;20043;-64
2022/05/14 02:06:22;;;;;;;8.35;2.60;;;;;;;10.10;85.08;102023.66;5099774;28;20355;-64
2022/05/14 02:08:48;;;;;;;7.90;2.72;;;;;;;10.08;85.33;102030.44;5100544;27;20111;-63
2022/05/14 02:11:14;;;;;;;8.30;2.70;;;;;;;10.05;84.94;102020.81;5105759;28;20975;-64
2022/05/14 02:13:41;;;;;;;5.93;2.65;;;;;;;10.00;84.96;102006.72;5102491;28;20106;-63
2022/05/14 02:16:08;;;;;;;8.45;2.88;;;;;;;10.00;84.71;102022.25;5104683;28;20024;-64
2022/05/14 02:18:34;;;;;;;7.15;2.70;;;;;;;10.00;84.83;102011.88;5102229;28;20055;-63
2022/05/14 02:20:59;;;;;;;9.05;3.45;;;;;;;10.00;84.84;102019.66;5099825;28;20466;-63
2022/05/14 02:23:25;;;;;;;8.25;2.95;;;;;;;10.03;84.90;102024.13;5096057;28;20031;-64
2022/05/14 02:25:50;;;;;;;8.13;2.90;;;;;;;10.01;85.26;102016.28;5098470;28;20162;-64
2022/05/14 02:28:17;;;;;;;7.05;3.20;;;;;;;9.98;84.75;102013.53;5107390;28;20039;-64
2022/05/14 02:30:43;;;;;;;8.10;3.10;;;;;;;9.94;84.64;102021.94;5098009;28;20024;-64
2022/05/14 02:33:08;;;;;;;8.45;3.40;;;;;;;9.94;84.79;102021.94;5102473;28;20038;-64
2022/05/14 02:35:34;;;;;;;5.30;3.05;;;;;;;9.96;85.12;102033.28;5100270;28;20050;-64
2022/05/14 02:37:59;;;;;;;4.90;3.30;;;;;;;9.93;85.52;102031.41;5098830;28;20023;-63
2022/05/14 02:40:24;;;;;;;7.95;2.80;;;;;;;9.92;85.54;102026.13;5100729;28;20031;-64
2022/05/14 02:42:50;;;;;;;8.43;3.10;;;;;;;9.89;85.83;102033.75;5100156;27;20470;-64
2022/05/14 02:45:15;;;;;;;5.32;3.15;;;;;;;9.84;86.11;102023.13;5096981;28;20375;-63
2022/05/14 02:47:40;;;;;;;9.25;3.35;;;;;;;9.78;85.55;102028.88;5095260;28;20016;-64
2022/05/14 02:50:08;;;;;;;5.90;3.13;;;;;;;9.72;85.96;102031.13;5099855;28;20047;-64
2022/05/14 02:52:33;;;;;;;7.35;3.47;;;;;;;9.71;86.47;102035.41;5088053;28;20441;-63
2022/05/14 02:54:59;;;;;;;9.23;3.42;;;;;;;9.69;86.19;102036.16;5102247;28;20130;-63
2022/05/14 02:57:24;;;;;;;7.63;3.47;;;;;;;9.65;87.19;102031.59;5105851;28;20809;-63
2022/05/14 02:59:50;;;;;;;6.10;3.10;;;;;;;9.56;87.18;102025.13;5099030;28;20107;-64
2022/05/14 03:02:17;;;;;;;5.60;2.80;;;;;;;9.49;87.05;102028.16;5092238;28;20093;-64
2022/05/14 03:04:43;;;;;;;7.13;3.33;;;;;;;9.44;86.68;102027.94;5104976;28;20020;-64
2022/05/14 03:07:11;;;;;;;9.18;2.88;;;;;;;9.47;87.02;102030.69;5094079;28;20024;-63
2022/05/14 03:09:37;;;;;;;5.97;3.03;;;;;;;9.52;86.95;102030.91;5099324;28;20458;-64
2022/05/14 03:12:03;;;;;;;8.40;2.95;;;;;;;9.49;87.00;102029.06;5102399;27;20055;-64
2022/05/14 03:14:28;;;;;;;8.43;3.28;;;;;;;9.49;86.96;102026.47;5099082;28;20082;-63
2022/05/14 03:16:54;;;;;;;7.63;2.85;;;;;;;9.49;87.05;102029.06;5101501;28;20051;-64
2022/05/14 03:19:19;;;;;;;9.23;3.40;;;;;;;9.49;86.98;102028.16;5097359;28;20229;-64
2022/05/14 03:21:45;;;;;;;7.20;3.30;;;;;;;9.46;86.86;102033.19;5098034;28;20028;-64
2022/05/14 03:24:11;;;;;;;5.57;2.80;;;;;;;9.41;87.31;102025.16;5101044;28;20020;-63
2022/05/14 03:26:38;;;;;;;7.22;2.53;;;;;;;9.37;87.37;102024.09;5101749;28;20024;-63
2022/05/14 03:29:03;;;;;;;8.77;2.90;;;;;;;9.33;87.82;102027.31;5101352;28;20026;-63
2022/05/14 03:31:29;;;;;;;4.65;2.72;;;;;;;9.30;87.58;102021.09;5101002;28;20016;-63
2022/05/14 03:33:54;;;;;;;7.05;3.15;;;;;;;9.31;87.33;102022.84;5094647;28;20035;-63
2022/05/14 03:36:19;;;;;;;5.95;3.40;;;;;;;9.34;87.52;102020.44;5092517;28;20028;-63
2022/05/14 03:38:45;;;;;;;9.30;2.78;;;;;;;9.32;87.59;102017.75;5089045;28;20423;-63
2022/05/14 03:41:10;;;;;;;8.43;3.63;;;;;;;9.30;87.09;102028.84;5102749;28;20025;-63
2022/05/14 03:43:37;;;;;;;8.60;3.67;;;;;;;9.30;87.51;102021.94;5095233;28;20077;-63
2022/05/14 03:46:02;;;;;;;10.43;3.00;;;;;;;9.33;87.50;102027.31;5103680;28;20517;-63
2022/05/14 03:48:28;;;;;;;4.93;3.15;;;;;;;9.34;87.64;102029.09;5097771;28;20032;-62
2022/05/14 03:50:53;;;;;;;9.35;3.80;;;;;;;9.32;87.82;102024.63;5094354;28;20047;-63
2022/05/14 03:53:19;;;;;;;8.50;3.60;;;;;;;9.33;87.43;102022.16;5099365;28;20027;-64
2022/05/14 03:55:44;;;;;;;7.38;3.20;;;;;;;9.31;87.64;102028.94;5096649;28;20068;-64
2022/05/14 03:58:11;;;;;;;8.90;3.67;;;;;;;9.28;88.03;102028.75;5099583;28;20119;-63
2022/05/14 04:00:36;;;;;;;8.15;3.20;;;;;;;9.24;88.26;102032.88;5098487;28;20016;-64
2022/05/14 04:03:02;;;;;;;9.27;3.67;;;;;;;9.22;88.38;102031.00;5100001;28;20023;-63
2022/05/14 04:05:27;;;;;;;6.35;3.33;;;;;;;9.19;88.07;102031.69;5098946;28;20481;-63
2022/05/14 04:07:52;;;;;;;7.60;3.25;;;;;;;9.20;88.14;102030.91;5097189;28;20027;-64
2022/05/14 04:10:18;;;;;;;8.35;3.53;;;;;;;9.18;88.73;102035.09;5097715;28;20492;-63
2022/05/14 04:12:44;;;;;;;7.75;3.55;;;;;;;9.15;88.67;102027.16;5099762;28;20030;-63
2022/05/14 04:15:10;;;;;;;8.20;3.30;;;;;;;9.09;89.16;102030.28;5099658;28;20031;-64
2022/05/14 04:17:36;;;;;;;6.90;3.35;;;;;;;9.13;88.92;102029.66;5096076;28;20112;-63
2022/05/14 04:20:01;;;;;;;9.65;3.83;;;;;;;9.10;88.95;102024.28;5098228;28;20066;-63
2022/05/14 04:22:27;;;;;;;9.18;3.67;;;;;;;9.11;89.46;102033.84;5098067;28;20044;-64
2022/05/14 04:24:52;;;;;;;6.97;3.20;;;;;;;9.13;89.59;102033.94;5099671;28;20027;-64
2022/05/14 04:27:18;;;;;;;5.13;3.55;;;;;;;9.16;89.64;102035.78;5099959;28;20024;-63
2022/05/14 04:29:43;;;;;;;9.40;3.85;;;;;;;9.13;89.40;102027.09;5096439;28;20460;-63
2022/05/14 04:32:08;;;;;;;11.73;4.00;;;;;;;9.11;89.77;102031.28;5099059;28;20027;-62
2022/05/14 04:34:34;;;;;;;11.77;3.70;;;;;;;9.15;89.68;102041.78;5098822;28;20044;-63
2022/05/14 04:36:59;;;;;;;7.95;4.43;;;;;;;9.17;89.50;102040.19;5094519;28;20494;-63
2022/05/14 04:39:31;;;;;;;11.27;4.60;;;;;;;9.18;89.82;102044.53;5103379;28;20035;-63
2022/05/14 04:42:00;;;;;;;10.18;4.13;;;;;;;9.19;90.12;102038.56;5094505;28;20032;-64
2022/05/14 04:44:27;;;;;;;8.27;4.20;;;;;;;9.18;90.47;102042.84;5089779;28;20032;-63
2022/05/14 04:46:53;;;;;;;9.98;4.18;;;;;;;9.22;90.38;102049.09;5098071;28;20711;-63
2022/05/14 04:49:18;;;;;;;5.90;3.90;;;;;;;9.24;90.40;102042.31;5100151;28;20043;-63
2022/05/14 04:51:43;;;;;;;10.27;4.53;;;;;;;9.28;90.59;102044.28;5096574;28;20452;-63
2022/05/14 04:54:09;;;;;;;9.63;3.85;;;;;;;9.30;90.58;102042.66;5101934;28;20023;-63
2022/05/14 04:56:34;;;;;;;10.65;4.63;;;;;;;9.29;90.85;102047.75;5098554;28;20144;-63
2022/05/14 04:58:59;;;;;;;8.48;4.05;;;;;;;9.25;90.89;102050.16;5097385;28;20197;-63
2022/05/14 05:01:24;;;;;;;10.10;4.65;;;;;;;9.27;90.74;102047.66;5089085;28;20054;-63
2022/05/14 05:03:50;;;;;;;11.50;5.65;;;;;;;9.27;91.45;102052.81;5097788;28;20391;-63
2022/05/14 05:06:18;;;;;;;8.18;4.85;;;;;;;9.34;91.35;102049.78;5099864;28;20065;-63
2022/05/14 05:08:43;;;;;;;10.50;5.28;;;;;;;9.40;91.25;102045.75;5099049;28;20460;-63
2022/05/14 05:11:09;;;;;;;7.38;5.22;;;;;;;9.46;91.20;102049.56;5095259;28;20026;-63
2022/05/14 05:13:35;;;;;;;10.82;5.18;;;;;;;9.52;91.08;102054.22;5098710;28;20028;-63
2022/05/14 05:16:01;;;;;;;11.00;5.40;;;;;;;9.62;91.39;102065.97;5099930;28;20019;-63
2022/05/14 05:18:26;;;;;;;11.50;5.80;;;;;;;9.73;90.65;102075.22;5099696;28;20031;-63
2022/05/14 05:20:54;;;;;;;9.80;5.88;;;;;;;9.82;90.58;102067.06;5101350;28;20387;-64
2022/05/14 05:23:22;;;;;;;7.75;5.57;;;;;;;9.85;90.92;102074.13;5100037;28;20036;-63
2022/05/14 05:25:48;;;;;;;11.13;6.00;;;;;;;9.94;91.32;102063.38;5101408;28;20026;-63
2022/05/14 05:28:14;;;;;;;13.40;5.82;;;;;;;10.05;90.66;102064.84;5104600;28;20031;-63
2022/05/14 05:30:39;;;;;;;27.75;7.03;;;;;;;10.13;90.62;102075.59;5105114;28;20019;-62
2022/05/14 05:33:10;;;;;;;10.93;6.20;;;;;;;10.23;90.72;102071.81;5106189;28;20028;-63
2022/05/14 05:35:35;;;;;;;12.93;5.90;;;;;;;10.34;90.31;102077.56;5103699;28;20051;-64
2022/05/14 05:38:01;;;;;;;14.20;7.43;;;;;;;10.45;90.10;102075.56;5099297;28;20024;-63
2022/05/14 05:40:26;;;;;;;11.10;6.70;;;;;;;10.57;89.25;102077.91;5102133;28;20046;-63
2022/05/14 05:42:51;;;;;;;14.73;7.03;;;;;;;10.67;89.38;102074.97;5095836;28;20449;-63
2022/05/14 05:45:17;;;;;;;12.27;6.38;;;;;;;10.75;88.98;102077.97;5103846;28;20046;-62
2022/05/14 05:47:42;;;;;;;11.15;7.22;;;;;;;10.88;88.00;102084.66;5090771;28;20050;-63
2022/05/14 05:50:09;;;;;;;12.38;7.20;;;;;;;11.02;88.81;102079.28;5097827;28;20520;-63
2022/05/14 05:52:34;;;;;;;14.23;6.53;;;;;;;11.16;88.25;102078.28;5094768;28;20502;-63
2022/05/14 05:57:43;;;;;;;15.30;6.63;;;;;;;11.41;87.38;102086.34;5105537;28;20042;-63
2022/05/14 06:00:13;;;;;;;13.52;7.43;;;;;;;11.51;86.82;102085.97;5098705;28;20040;-63
2022/05/14 06:02:38;;;;;;;11.65;7.50;;;;;;;11.63;86.90;102092.59;5090270;28;20032;-63
2022/05/14 06:05:05;;;;;;;14.35;7.95;;;;;;;11.71;86.73;102086.03;5092166;28;20023;-63
2022/05/14 06:07:31;;;;;;;14.38;7.40;;;;;;;11.73;86.85;102086.09;5091547;28;20032;-63
2022/05/14 06:09:56;;;;;;;14.20;7.60;;;;;;;11.81;87.33;102097.75;5108680;28;20032;-63
2022/05/14 06:12:23;;;;;;;16.02;9.23;;;;;;;11.97;86.50;102094.19;5108249;28;20442;-63
2022/05/14 06:14:49;;;;;;;13.25;6.95;;;;;;;12.18;85.22;102095.13;5107942;28;20031;-63
2022/05/14 06:17:14;;;;;;;15.15;8.15;;;;;;;12.42;84.79;102097.03;5106481;28;20027;-63
2022/05/14 06:19:41;;;;;;;18.42;8.80;;;;;;;12.49;85.23;102081.78;5104281;28;20329;-63
2022/05/14 06:22:06;;;;;;;15.73;7.88;;;;;;;12.57;84.69;102089.03;5104854;28;20023;-63
2022/05/14 06:24:32;;;;;;;15.30;7.18;;;;;;;12.75;83.70;102090.66;5104644;28;20030;-64
2022/05/14 06:26:57;;;;;;;15.60;8.57;;;;;;;12.89;83.54;102094.75;5105701;28;20419;-64
2022/05/14 06:29:23;;;;;;;15.77;7.50;;;;;;;13.07;82.79;102101.53;5098906;28;20527;-63
2022/05/14 06:31:48;;;;;;;13.48;7.97;;;;;;;13.24;82.87;102102.22;5095265;28;20115;-63
2022/05/14 06:34:13;;;;;;;12.63;6.68;;;;;;;13.39;82.25;102096.75;5107662;28;20059;-63
2022/05/14 06:36:39;;;;;;;13.65;7.55;;;;;;;13.51;81.96;102105.91;5102256;28;20385;-63
2022/05/14 06:39:05;;;;;;;16.10;7.63;;;;;;;13.67;81.03;102102.22;5089533;28;20032;-63
2022/05/14 06:41:30;;;;;;;16.30;8.02;;;;;;;13.78;79.47;102107.88;5089677;28;20024;-64
2022/05/14 06:43:56;;;;;;;13.32;7.80;;;;;;;13.97;80.00;102116.38;5092747;28;20118;-65
2022/05/14 06:46:21;;;;;;;12.40;7.50;;;;;;;14.11;80.54;102115.19;5099931;28;20027;-64
2022/05/14 06:48:47;;;;;;;14.93;8.20;;;;;;;14.23;80.49;102121.69;5100046;27;20024;-63
2022/05/14 06:51:19;;;;;;;12.15;7.82;;;;;;;14.35;79.61;102119.53;5097985;28;20046;-64
2022/05/14 06:53:44;;;;;;;15.05;7.93;;;;;;;14.46;78.71;102117.31;5100079;28;20141;-63
2022/05/14 06:56:13;;;;;;;14.75;7.53;;;;;;;14.65;78.37;102108.44;5100417;28;20019;-64
2022/05/14 06:58:40;;;;;;;17.05;8.65;;;;;;;14.81;76.71;102114.22;5098515;28;20398;-64
2022/05/14 07:01:07;;;;;;;17.52;8.70;;;;;;;15.01;76.41;102119.22;5094822;28;20016;-64
2022/05/14 07:06:39;;;;;;;17.17;8.88;;;;;;;15.19;75.06;102105.91;5101472;28;20078;-63
2022/05/14 07:09:14;;;;;;;15.00;7.28;;;;;;;15.33;74.92;102108.97;5098932;28;20537;-64
2022/05/14 07:11:42;;;;;;;15.85;7.88;;;;;;;15.40;74.04;102104.81;5104445;28;20058;-64
2022/05/14 07:14:08;;;;;;;13.73;6.97;;;;;;;15.54;74.61;102117.44;5108000;28;20023;-64
2022/05/14 07:16:34;;;;;;;13.80;7.78;;;;;;;15.70;73.71;102113.59;5108460;28;20407;-64
2022/05/14 07:18:59;;;;;;;15.82;9.07;;;;;;;15.89;73.40;102108.91;5107803;28;20021;-64
2022/05/14 07:21:24;;;;;;;15.38;7.65;;;;;;;16.00;73.65;102112.78;5108135;28;20036;-63
2022/05/14 07:23:50;;;;;;;12.43;6.97;;;;;;;16.11;72.07;102114.81;5108167;28;20422;-64
2022/05/14 07:26:16;;;;;;;12.75;7.75;;;;;;;16.26;72.16;102114.38;5100659;27;20024;-64
2022/05/14 07:28:41;;;;;;;12.30;7.35;;;;;;;16.40;71.50;102120.00;5088549;28;20031;-64
2022/05/14 07:31:08;;;;;;;12.50;7.72;;;;;;;16.47;70.47;102121.06;5088765;28;20350;-64
2022/05/14 07:33:33;;;;;;;16.42;7.72;;;;;;;16.65;70.60;102118.06;5107758;28;20604;-63
2022/05/14 07:36:06;;;;;;;17.25;8.38;;;;;;;16.80;69.79;102110.59;5107682;28;20134;-64
2022/05/14 07:38:35;;;;;;;15.05;6.97;;;;;;;17.03;69.37;102110.34;5088777;28;20093;-64
2022/05/14 07:41:01;;;;;;;13.45;7.22;;;;;;;17.20;68.13;102102.03;5105257;28;20043;-63
2022/05/14 07:43:30;;;;;;;16.85;8.23;;;;;;;17.32;68.90;102114.56;5101042;28;20169;-63
2022/05/14 07:46:00;;;;;;;15.60;8.20;;;;;;;17.45;67.97;102118.34;5093204;28;20111;-63
2022/05/14 07:48:31;;;;;;;18.30;8.85;;;;;;;17.39;66.39;102119.09;5087723;28;20428;-63
2022/05/14 07:50:58;;;;;;;14.40;8.48;;;;;;;17.44;68.30;102116.56;5088243;28;20438;-63
2022/05/14 07:53:30;;;;;;;17.63;8.27;;;;;;;17.63;68.24;102117.88;5087944;28;20103;-63
2022/05/14 07:55:55;;;;;;;15.10;8.32;;;;;;;17.80;65.48;102108.63;5088362;28;20451;-63
2022/05/14 07:58:20;;;;;;;15.00;8.38;;;;;;;17.96;66.53;102113.34;5087573;28;20076;-63
2022/05/14 08:00:46;;;;;;;13.38;8.15;;;;;;;18.12;63.39;102116.28;5086831;28;20027;-63
2022/05/14 08:03:11;;;;;;;16.02;8.63;;;;;;;17.96;63.43;102113.34;5088052;28;20118;-63
2022/05/14 08:05:36;;;;;;;16.40;8.25;;;;;;;18.19;65.18;102117.34;5106847;28;20031;-63
2022/05/14 08:08:02;;;;;;;14.85;7.95;;;;;;;18.47;64.41;102118.75;5106833;28;20429;-63
2022/05/14 08:10:27;;;;;;;15.25;7.60;;;;;;;18.71;61.21;102117.47;5106937;28;20023;-63
2022/05/14 08:12:56;;;;;;;15.27;7.97;;;;;;;18.89;63.50;102116.03;5107187;28;20440;-63
2022/05/14 08:15:25;;;;;;;16.80;8.75;;;;;;;19.13;62.34;102119.97;5094726;28;20020;-63
2022/05/14 08:17:50;;;;;;;15.45;8.35;;;;;;;19.26;60.94;102114.91;5087648;28;20036;-63
2022/05/14 08:20:16;;;;;;;15.30;8.63;;;;;;;19.42;60.74;102116.03;5107315;28;20274;-63
2022/05/14 08:25:27;;;;;;;11.82;7.40;;;;;;;19.77;60.97;102112.16;5088088;28;20039;-63
2022/05/14 08:27:53;;;;;;;16.15;7.93;;;;;;;19.77;58.36;102110.41;5087628;28;20020;-63
2022/05/14 08:30:21;;;;;;;16.75;8.15;;;;;;;19.91;58.87;102121.09;5101979;28;20494;-63
2022/05/14 08:32:47;;;;;;;18.77;7.80;;;;;;;19.53;56.87;102118.81;5105083;28;20456;-63
2022/05/14 08:35:13;;;;;;;14.73;7.43;;;;;;;19.66;59.09;102115.50;5094054;28;20050;-63
2022/05/14 08:37:38;;;;;;;14.02;8.02;;;;;;;19.82;58.31;102112.22;5101290;28;20070;-63
2022/05/14 08:40:14;;;;;;;15.35;8.55;;;;;;;20.01;59.07;102114.22;5098073;28;20114;-64
2022/05/14 08:42:40;;;;;;;18.95;8.05;;;;;;;20.10;57.67;102116.13;5107042;28;20031;-64
2022/05/14 08:45:06;;;;;;;17.85;7.32;;;;;;;20.32;58.12;102121.63;5104452;28;20034;-64
2022/05/14 08:47:36;;;;;;;14.18;6.30;;;;;;;20.48;56.40;102122.69;5102153;28;20047;-64
2022/05/14 08:50:04;;;;;;;17.40;7.53;;;;;;;20.68;55.18;102118.50;5096270;28;20285;-64
2022/05/14 08:52:30;;;;;;;15.27;7.25;;;;;;;20.79;55.79;102122.13;5089806;28;20032;-64
2022/05/14 08:55:00;;;;;;;17.00;7.45;;;;;;;20.94;54.32;102109.97;5092962;28;20016;-64
2022/05/14 08:57:52;;;;;;;17.48;7.95;;;;;;;21.13;56.30;102104.84;5097597;28;20039;-64
2022/05/14 09:00:18;;;;;;;20.58;7.93;;;;;;;21.31;54.79;102110.28;5086621;28;20040;-64
2022/05/14 09:02:46;;;;;;;19.23;7.72;;;;;;;21.15;53.23;102109.28;5090287;28;20032;-64
2022/05/14 09:05:20;;;;;;;17.02;8.13;;;;;;;21.08;55.19;102105.69;5094448;28;20032;-64
2022/05/14 09:07:45;;;;;;;13.70;7.18;;;;;;;21.24;56.12;102108.47;5109749;28;20035;-64
2022/05/14 09:10:24;;;;;;;13.15;7.25;;;;;;;21.34;54.31;102104.13;5109656;28;20024;-64
2022/05/14 09:12:57;;;;;;;15.25;8.63;;;;;;;21.35;54.67;102112.03;5090041;28;20383;-64
2022/05/14 09:15:25;;;;;;;17.08;7.32;;;;;;;21.35;53.79;102112.03;5098683;28;20024;-64
2022/05/14 09:18:13;;;;;;;15.05;7.03;;;;;;;21.34;53.08;102115.56;5091431;28;20032;-64
2022/05/14 09:20:43;;;;;;;13.90;7.03;;;;;;;21.37;52.38;102116.47;5091080;28;20480;-64
2022/05/14 09:23:08;;;;;;;14.13;7.00;;;;;;;20.75;51.98;102115.06;5090925;28;20020;-64
2022/05/14 09:25:41;;;;;;;15.18;6.55;;;;;;;20.92;54.27;102103.78;5090301;28;20023;-64
2022/05/14 09:28:20;;;;;;;13.63;7.00;;;;;;;21.29;53.73;102109.38;5090644;28;20076;-64
2022/05/14 09:30:54;;;;;;;20.42;6.53;;;;;;;21.55;55.76;102111.28;5090657;28;20028;-64
2022/05/14 09:33:29;;;;;;;12.50;6.07;;;;;;;21.63;52.69;102107.81;5110127;28;20032;-64
2022/05/14 09:35:58;;;;;;;12.80;6.35;;;;;;;21.86;52.47;102101.84;5109883;28;20134;-64
2022/05/14 09:38:24;;;;;;;14.70;6.15;;;;;;;22.01;52.28;102096.63;5090602;28;20024;-64
2022/05/14 09:40:51;;;;;;;18.67;8.20;;;;;;;22.24;53.28;102095.81;5090106;28;20077;-64
2022/05/14 09:43:17;;;;;;;12.75;7.90;;;;;;;22.39;50.80;102099.38;5090347;28;20569;-64
2022/05/14 09:45:56;;;;;;;19.85;8.18;;;;;;;22.54;50.86;102099.38;5110175;28;20061;-64
2022/05/14 09:48:29;;;;;;;15.63;7.22;;;;;;;22.69;49.94;102094.16;5110439;27;20027;-64
2022/05/14 09:51:01;;;;;;;15.38;8.40;;;;;;;22.63;49.71;102101.19;5109939;28;20442;-64
2022/05/14 09:53:30;;;;;;;13.80;6.80;;;;;;;22.34;49.98;102095.84;5109533;27;20028;-64
2022/05/14 09:56:20;;;;;;;18.17;6.95;;;;;;;22.09;50.64;102101.03;5109202;28;20031;-64
2022/05/14 09:59:01;;;;;;;15.82;7.70;;;;;;;21.67;51.38;102096.44;5090982;28;20024;-64
2022/05/14 10:01:33;;;;;;;16.20;6.78;;;;;;;21.39;51.36;102101.53;5104116;28;20114;-64
2022/05/14 10:04:49;;;;;;;17.58;7.18;;;;;;;21.27;52.87;102102.31;5094428;28;20494;-64
2022/05/14 10:07:43;;;;;;;16.63;6.93;;;;;;;21.33;50.50;102098.00;5073208;28;20040;-64
2022/05/14 10:10:30;;;;;;;12.90;6.57;;;;;;;21.17;53.07;102094.38;5108326;28;20027;-64
2022/05/14 10:13:32;;;;;;;14.10;6.88;;;;;;;21.02;52.57;102104.78;5109359;28;20038;-64
2022/05/14 10:16:04;;;;;;;15.85;7.30;;;;;;;20.64;53.14;102102.66;5109593;28;20020;-64
2022/05/14 10:19:13;;;;;;;12.30;6.32;;;;;;;20.52;53.02;102113.94;5109122;28;20042;-64
2022/05/14 10:22:05;;;;;;;12.73;6.75;;;;;;;20.29;53.34;102111.09;5109615;28;20387;-64
2022/05/14 10:27:52;;;;;;;16.75;7.18;;;;;;;20.59;53.84;102099.09;5089695;28;20120;-64
2022/05/14 10:30:25;;;;;;;13.68;6.13;;;;;;;21.00;52.99;102099.50;5105307;28;20146;-64
2022/05/14 10:33:12;;;;;;;13.45;5.53;;;;;;;21.08;51.31;102096.94;5107248;28;20027;-64
2022/05/14 10:36:04;;;;;;;14.38;6.40;;;;;;;21.47;52.11;102099.81;5089799;28;20051;-64
2022/05/14 10:38:36;;;;;;;14.52;6.38;;;;;;;21.88;50.88;102098.31;5102138;28;20499;-64
2022/05/14 10:41:06;;;;;;;12.68;5.80;;;;;;;22.13;48.20;102093.13;5091668;28;20028;-64
2022/05/14 10:43:54;;;;;;;11.90;5.90;;;;;;;22.42;48.63;102091.44;5106810;28;20027;-64
2022/05/14 10:46:22;;;;;;;12.30;5.75;;;;;;;22.49;46.89;102094.97;5089605;28;20020;-64
2022/05/14 10:49:00;;;;;;;11.75;5.80;;;;;;;22.60;46.58;102100.28;5108176;28;20020;-64
2022/05/14 10:51:29;;;;;;;12.13;5.45;;;;;;;22.79;45.99;102091.50;5102904;28;20051;-64
2022/05/14 10:53:55;;;;;;;10.00;5.32;;;;;;;22.90;48.31;102099.44;5089565;28;20028;-64
2022/05/14 10:56:33;;;;;;;13.10;5.15;;;;;;;23.06;47.37;102098.56;5095807;28;20035;-64
2022/05/14 10:59:10;;;;;;;11.52;5.90;;;;;;;23.06;47.17;102093.28;5089971;28;20447;-64
2022/05/14 11:01:44;;;;;;;12.93;6.03;;;;;;;22.90;44.56;102098.59;5093794;28;20036;-64
2022/05/14 11:04:15;;;;;;;12.98;5.90;;;;;;;22.70;44.88;102091.53;5089494;28;20404;-64
2022/05/14 11:07:25;;;;;;;12.32;5.93;;;;;;;22.59;44.86;102091.50;5089785;28;20543;-64
2022/05/14 11:09:51;;;;;;;12.13;5.28;;;;;;;22.58;46.02;102081.78;5084722;28;20039;-64
2022/05/14 11:12:19;;;;;;;9.93;4.70;;;;;;;22.76;45.85;102088.00;5109207;28;20483;-64
2022/05/14 11:14:51;;;;;;;9.27;5.30;;;;;;;22.79;44.75;102088.00;5110117;28;20050;-64
2022/05/14 11:17:27;;;;;;;17.08;5.50;;;;;;;22.87;43.86;102095.91;5109312;28;20012;-64
2022/05/14 11:20:07;;;;;;;12.40;5.75;;;;;;;22.82;44.02;102090.66;5110276;28;20039;-64
2022/05/14 11:22:34;;;;;;;11.13;5.20;;;;;;;22.90;43.99;102088.88;5110142;28;20039;-64
2022/05/14 11:25:16;;;;;;;14.07;4.32;;;;;;;23.01;42.72;102095.91;5108902;28;20110;-64
2022/05/14 11:28:00;;;;;;;15.20;5.90;;;;;;;23.20;43.63;102099.44;5110089;28;20422;-64
2022/05/14 11:30:34;;;;;;;13.18;6.53;;;;;;;23.16;41.38;102095.03;5103877;28;20015;-63
2022/05/14 11:33:01;;;;;;;12.13;5.45;;;;;;;23.16;43.38;102095.03;5100770;28;20345;-63
2022/05/14 11:35:40;;;;;;;14.52;4.90;;;;;;;23.28;43.23;102094.13;5099939;27;20067;-64
2022/05/14 11:38:35;;;;;;;9.82;4.75;;;;;;;23.41;44.93;102099.38;5108901;28;20041;-63
2022/05/14 11:41:02;;;;;;;11.13;5.55;;;;;;;23.44;42.88;102097.66;5107902;28;20036;-63
2022/05/14 11:43:49;;;;;;;15.77;6.85;;;;;;;23.45;41.56;102096.78;5109266;28;20483;-63
2022/05/14 11:46:40;;;;;;;13.00;5.20;;;;;;;23.66;43.46;102105.53;5109370;28;20555;-63
2022/05/14 11:49:27;;;;;;;11.30;4.85;;;;;;;23.75;40.97;102100.22;5109644;28;20028;-65